Main page
METAR-TAF:

METAR-TAF

Airports :

Torrington Municipal Airport

Torrington, Wyoming, United States

latitude: 42-03-53N, longitude: 104-09-10W, elevation: 4205 ft

Current weather observation

The report was made 1 hour and 3 minutes ago, at 10:53 UTC
Wind 9 mph from the North
Temperature 52°F
Humidity 76%
Pressure 29.75 in. Hg
Visibility: 10 miles
Broken clouds at a height of 5500 ft
Broken clouds at a height of 9000 ft
Overcast at a height of 11000 ft
light rain

METAR: KTOR 251053Z AUTO 01008KT 10SM -RA BKN055 BKN090 OVC110 11/07 A2975 RMK AO2 SLP040 P0001 T01060072

Time: 05:56 (11:56 UTC)


TAF: missing

Weather observations and forecasts of more than 4000 airports (METAR and TAF reports).

The available stations are represented by yellow and red dots on the map.

Hover mouse over dot to see the name of the station.

Then click to see weather observations and forecasts.

To change the map : click on the green buttons with a black cross to zoom in, on the green button with a dash to zoom out, or on the green arrows for adjacent maps.


METAR-TAF: